»·PEaware :: N515ZT KSBP-KSBA

N515ZT :: KSBP-KSBA

FLIGHT INFORMATION

Flight Status: Arrived
Operator: Privately registered:
United States
More flights under this callsign
Pilot: Marty P. (27464)
Aircraft: BEECH AIRCRAFT BARON
(BE58)
More flights by this aircraft type
Origin: KSBP San Luis Co Regl
United States
Destination: KSBA Santa Barbara Mun
United States
More flights between these airports :: More routes between these airports
Route: RIZIN IYOBE
File this flight plan on PilotEdge
Remarks:
Altitude:
(Current/Filed)
9,500ft
Speed:
(Current/Filed)
200kts
Departed: 09-Feb-20 11:12 AM
Arrived: 09-Feb-20 11:44 AM
Distance/Time
Traveled:
62nm/0:31
Distance/Time
To Go:
Arrived

Flight Plot

Page will automatically refresh every two minutes.

Flight plan parsing failed; only flown route is shown


Map Options




Map Legend


Flown Route
Filed Route
Departure Airport
Arrival Airport
Navaid (VOR, NDB)
Fix

Horizontal Profiles

Position Reports

Time Latitude Longitude Heading Altitude Ground
Speed
09-Feb-20 10:53 35.234436 -120.632955 213 213ft 0kts
09-Feb-20 10:54 35.234436 -120.632955 213 213ft 0kts
09-Feb-20 10:55 35.234436 -120.632955 213 213ft 0kts
09-Feb-20 10:56 35.234436 -120.632955 213 213ft 0kts
09-Feb-20 10:57 35.234436 -120.632955 213 213ft 0kts
09-Feb-20 10:58 35.234436 -120.632955 214 213ft 0kts
09-Feb-20 10:59 35.234436 -120.632955 213 213ft 0kts
09-Feb-20 11:00 35.234436 -120.632955 213 213ft 0kts
09-Feb-20 11:01 35.234404 -120.633694 216 213ft 6kts
09-Feb-20 11:02 35.233168 -120.632363 212 213ft 0kts
09-Feb-20 11:03 35.233168 -120.632363 212 213ft 0kts
09-Feb-20 11:04 35.233168 -120.632363 212 213ft 0kts
09-Feb-20 11:05 35.233168 -120.632363 212 213ft 0kts
09-Feb-20 11:06 35.233168 -120.632363 212 213ft 0kts
09-Feb-20 11:07 35.233168 -120.632363 212 213ft 0kts
09-Feb-20 11:08 35.233168 -120.632363 212 213ft 0kts
09-Feb-20 11:09 35.233168 -120.632363 212 213ft 0kts
09-Feb-20 11:10 35.233209 -120.633763 303 213ft 0kts
09-Feb-20 11:11 35.241173 -120.648762 307 420ft 120kts
09-Feb-20 11:12 35.251780 -120.683890 253 1147ft 139kts
09-Feb-20 11:13 35.217865 -120.692704 126 2022ft 126kts
09-Feb-20 11:14 35.204347 -120.654402 100 2555ft 134kts
09-Feb-20 11:15 35.187297 -120.610015 109 3687ft 147kts
09-Feb-20 11:16 35.169356 -120.564951 109 4826ft 147kts
09-Feb-20 11:17 35.151642 -120.519615 109 5894ft 146kts
09-Feb-20 11:18 35.123661 -120.481849 146 7094ft 161kts
09-Feb-20 11:19 35.091674 -120.444318 127 8340ft 158kts
09-Feb-20 11:20 35.062553 -120.404815 126 9459ft 155kts
09-Feb-20 11:21 35.028802 -120.358956 129 9517ft 203kts
09-Feb-20 11:22 34.990584 -120.307376 131 9525ft 218kts
09-Feb-20 11:23 34.949946 -120.252348 128 9531ft 218kts
09-Feb-20 11:24 34.908943 -120.197108 127 9507ft 220kts
09-Feb-20 11:25 34.867541 -120.141394 130 9479ft 222kts
09-Feb-20 11:26 34.826830 -120.086621 129 9489ft 216kts
09-Feb-20 11:27 34.786738 -120.032795 129 9478ft 216kts
09-Feb-20 11:28 34.746541 -119.978895 129 9467ft 215kts
09-Feb-20 11:29 34.706740 -119.925636 129 9461ft 213kts
09-Feb-20 11:30 34.666853 -119.872338 129 9461ft 213kts
09-Feb-20 11:31 34.626889 -119.819023 129 9462ft 213kts
09-Feb-20 11:32 34.586900 -119.765739 129 9462ft 214kts
09-Feb-20 11:33 34.546620 -119.712163 129 9187ft 225kts
09-Feb-20 11:34 34.502329 -119.653339 129 7628ft 243kts
09-Feb-20 11:35 34.458429 -119.595150 130 5506ft 211kts
09-Feb-20 11:36 34.424169 -119.551371 146 3752ft 144kts
09-Feb-20 11:37 34.412988 -119.582924 278 2502ft 130kts
09-Feb-20 11:38 34.423454 -119.630825 301 2508ft 156kts
09-Feb-20 11:39 34.430574 -119.681780 266 2488ft 160kts
09-Feb-20 11:40 34.429826 -119.737385 269 1920ft 167kts
09-Feb-20 11:41 34.427990 -119.787423 273 1269ft 121kts
09-Feb-20 11:42 34.428068 -119.823201 266 373ft 103kts
09-Feb-20 11:43 34.428289 -119.841891 346 14ft 1kts
09-Feb-20 11:44 34.428571 -119.841969 346 14ft 1kts
09-Feb-20 11:45 34.430557 -119.840211 68 14ft 18kts
09-Feb-20 11:46 34.432950 -119.834721 336 14ft 11kts
09-Feb-20 11:47 34.432875 -119.835956 249 14ft 0kts
09-Feb-20 11:48 34.432875 -119.835956 249 14ft 0kts
09-Feb-20 11:49 34.432875 -119.835956 249 14ft 0kts

Navigation Log

Ident Type
Flight plan parsing failed, navigation log unavailable